Time;durP1;ratioP1;P1;durP2;ratioP2;P2;SDS_P1;SDS_P2;PMS_P1;PMS_P2;Temp;Humidity;BMP_temperature;BMP_pressure;BME280_temperature;BME280_humidity;BME280_pressure;Samples;Min_cycle;Max_cycle;Signal;HPM_P1;HPM_P2
2020/12/21 00:01:58;;;;;;;19.73;7.85;;;4.20;75.70;;;;;;4998069;28;20018;-85
2020/12/21 00:04:24;;;;;;;19.13;7.97;;;4.20;75.80;;;;;;5014098;28;20021;-85
2020/12/21 00:06:59;;;;;;;19.17;8.32;;;4.20;75.90;;;;;;5016964;28;20112;-85
2020/12/21 00:09:24;;;;;;;18.92;8.07;;;4.20;75.70;;;;;;5013724;28;20018;-85
2020/12/21 00:11:51;;;;;;;19.20;7.85;;;4.20;75.60;;;;;;4997490;28;20084;-85
2020/12/21 00:14:17;;;;;;;20.40;8.57;;;4.20;75.80;;;;;;5017523;28;20028;-85
2020/12/21 00:16:50;;;;;;;15.82;7.00;;;4.20;75.90;;;;;;5012249;28;20412;-89
2020/12/21 00:19:18;;;;;;;19.00;8.13;;;4.20;75.80;;;;;;5017377;28;20026;-88
2020/12/21 00:21:45;;;;;;;20.80;8.13;;;4.20;75.90;;;;;;4998453;28;20033;-88
2020/12/21 00:24:11;;;;;;;16.60;7.25;;;4.30;76.00;;;;;;4995573;28;20026;-88
2020/12/21 00:26:37;;;;;;;17.90;8.50;;;4.30;76.00;;;;;;5014023;28;20088;-88
2020/12/21 00:29:03;;;;;;;19.05;7.72;;;4.30;76.10;;;;;;5000636;28;20017;-88
2020/12/21 00:31:31;;;;;;;19.48;9.10;;;4.30;76.10;;;;;;5037531;28;20056;-90
2020/12/21 00:33:58;;;;;;;18.05;7.63;;;4.30;76.10;;;;;;5040907;28;20381;-86
2020/12/21 00:36:24;;;;;;;19.48;8.55;;;4.30;76.00;;;;;;5054521;28;20029;-87
2020/12/21 00:38:51;;;;;;;16.50;7.53;;;4.30;75.80;;;;;;5036028;28;20472;-86
2020/12/21 00:41:20;;;;;;;18.55;8.00;;;4.30;75.60;;;;;;5036875;28;20029;-87
2020/12/21 00:43:46;;;;;;;18.83;7.65;;;4.30;75.90;;;;;;5036604;28;20060;-86
2020/12/21 00:46:14;;;;;;;19.13;8.40;;;4.30;75.80;;;;;;5012679;28;20547;-86
2020/12/21 00:48:41;;;;;;;16.25;7.43;;;4.30;76.10;;;;;;5036171;28;20477;-87
2020/12/21 00:51:07;;;;;;;19.13;7.32;;;4.30;75.80;;;;;;5015540;28;20457;-84
2020/12/21 00:53:33;;;;;;;22.15;8.10;;;4.40;76.00;;;;;;5036402;28;20469;-84
2020/12/21 00:56:03;;;;;;;18.98;8.88;;;4.30;75.70;;;;;;5036151;28;20039;-85
2020/12/21 00:58:34;;;;;;;15.27;7.07;;;4.30;75.90;;;;;;5023562;28;20116;-84
2020/12/21 01:01:03;;;;;;;18.00;8.20;;;4.30;75.80;;;;;;5054111;28;20504;-86
2020/12/21 01:03:28;;;;;;;18.98;7.75;;;4.30;76.00;;;;;;5055794;28;20025;-86
2020/12/21 01:05:54;;;;;;;18.52;8.07;;;4.30;76.10;;;;;;5020839;28;20031;-86
2020/12/21 01:08:20;;;;;;;17.42;7.68;;;4.40;76.00;;;;;;5016938;28;20122;-86
2020/12/21 01:10:45;;;;;;;19.65;7.10;;;4.40;75.90;;;;;;5057892;28;20028;-86
2020/12/21 01:13:11;;;;;;;16.75;7.53;;;4.40;76.20;;;;;;5036359;28;20025;-86
2020/12/21 01:15:37;;;;;;;17.02;7.63;;;4.40;76.00;;;;;;5019633;28;20477;-86
2020/12/21 01:18:02;;;;;;;20.70;8.73;;;4.30;75.70;;;;;;5039567;28;20027;-87
2020/12/21 01:20:28;;;;;;;17.85;7.60;;;4.30;75.70;;;;;;5022110;28;20024;-87
2020/12/21 01:22:54;;;;;;;16.20;6.35;;;4.30;75.50;;;;;;5027136;28;20026;-87
2020/12/21 01:25:19;;;;;;;17.48;7.65;;;4.20;75.60;;;;;;5023278;28;20032;-88
2020/12/21 01:27:45;;;;;;;18.25;7.32;;;4.20;75.60;;;;;;5035968;28;20029;-88
2020/12/21 01:30:11;;;;;;;18.20;7.60;;;4.10;75.80;;;;;;5005210;28;20133;-88
2020/12/21 01:32:36;;;;;;;18.27;7.80;;;4.20;76.10;;;;;;5017685;28;20022;-87
2020/12/21 01:35:02;;;;;;;19.55;7.65;;;4.20;76.70;;;;;;5000823;28;20021;-87
2020/12/21 01:37:28;;;;;;;19.48;8.05;;;4.20;75.90;;;;;;5016463;28;20076;-87
2020/12/21 01:39:54;;;;;;;19.70;7.60;;;4.30;76.30;;;;;;4996733;28;20026;-87
2020/12/21 01:42:19;;;;;;;19.33;8.88;;;4.30;76.20;;;;;;4999953;28;20509;-87
2020/12/21 01:44:47;;;;;;;17.40;7.45;;;4.30;76.20;;;;;;5015920;28;20017;-87
2020/12/21 01:47:14;;;;;;;18.70;7.53;;;4.30;76.30;;;;;;5012488;28;20140;-87
2020/12/21 01:49:40;;;;;;;15.88;7.25;;;4.30;76.00;;;;;;5012707;28;20537;-87
2020/12/21 01:52:07;;;;;;;18.67;7.00;;;4.30;75.80;;;;;;4998456;28;20124;-86
2020/12/21 01:54:33;;;;;;;20.75;8.35;;;4.30;76.10;;;;;;5019725;28;20026;-86
2020/12/21 01:56:59;;;;;;;14.82;6.28;;;4.30;75.90;;;;;;5000452;28;20038;-86
2020/12/21 01:59:26;;;;;;;17.58;7.30;;;4.30;76.10;;;;;;5003086;28;20527;-85
2020/12/21 02:01:52;;;;;;;17.85;8.20;;;4.30;76.00;;;;;;5016469;28;20037;-85
2020/12/21 02:04:21;;;;;;;19.08;7.57;;;4.30;76.30;;;;;;5006386;28;20042;-86
2020/12/21 02:06:47;;;;;;;18.10;7.78;;;4.30;76.00;;;;;;5008184;28;20029;-86
2020/12/21 02:09:13;;;;;;;16.38;6.68;;;4.30;76.10;;;;;;4998667;28;20049;-86
2020/12/21 02:11:43;;;;;;;18.50;7.10;;;4.30;76.10;;;;;;5016669;28;20061;-85
2020/12/21 02:14:09;;;;;;;19.05;6.88;;;4.30;76.00;;;;;;5014115;28;20369;-85
2020/12/21 02:16:36;;;;;;;17.38;6.80;;;4.30;76.20;;;;;;4999850;28;20430;-85
2020/12/21 02:19:05;;;;;;;16.52;6.30;;;4.30;76.10;;;;;;5015484;28;20386;-85
2020/12/21 02:21:31;;;;;;;14.45;6.38;;;4.20;75.70;;;;;;5015031;28;20072;-85
2020/12/21 02:23:57;;;;;;;17.05;7.78;;;4.10;75.40;;;;;;4997111;28;20029;-85
2020/12/21 02:26:22;;;;;;;16.88;7.40;;;4.10;75.60;;;;;;4999677;28;20490;-86
2020/12/21 02:28:57;;;;;;;15.32;7.20;;;4.10;76.00;;;;;;4999333;28;20049;-85
2020/12/21 02:31:23;;;;;;;15.02;6.05;;;4.10;76.10;;;;;;5044843;28;20048;-85
2020/12/21 02:33:49;;;;;;;14.75;6.40;;;4.10;76.20;;;;;;5042324;28;20021;-85
2020/12/21 02:36:14;;;;;;;16.05;6.60;;;4.10;76.20;;;;;;5014968;28;20075;-85
2020/12/21 02:38:41;;;;;;;14.80;6.93;;;4.10;76.00;;;;;;5056757;28;20112;-87
2020/12/21 02:41:07;;;;;;;19.52;7.75;;;4.10;75.90;;;;;;5022609;28;20124;-88
2020/12/21 02:43:33;;;;;;;19.48;7.30;;;4.10;75.70;;;;;;5038978;28;20075;-87
2020/12/21 02:45:59;;;;;;;15.73;7.03;;;4.00;75.90;;;;;;5022636;28;20029;-88
2020/12/21 02:48:25;;;;;;;18.55;7.63;;;4.00;76.00;;;;;;5038991;28;21084;-86
2020/12/21 02:50:50;;;;;;;17.27;7.63;;;4.00;76.10;;;;;;5021932;28;20037;-85
2020/12/21 02:53:16;;;;;;;16.92;7.18;;;4.10;76.20;;;;;;5038734;28;20025;-86
2020/12/21 02:55:43;;;;;;;18.63;7.50;;;4.10;76.50;;;;;;5056352;28;20029;-86
2020/12/21 02:58:08;;;;;;;17.63;7.88;;;4.00;75.80;;;;;;5038599;28;20120;-86
2020/12/21 03:00:34;;;;;;;19.77;8.20;;;3.90;75.70;;;;;;5022203;28;20120;-87
2020/12/21 03:03:01;;;;;;;18.75;7.60;;;3.90;75.60;;;;;;5055733;28;20032;-87
2020/12/21 03:05:27;;;;;;;19.60;7.97;;;3.90;75.90;;;;;;5038347;28;20511;-86
2020/12/21 03:07:52;;;;;;;16.20;7.18;;;3.90;76.20;;;;;;5021956;28;20059;-88
2020/12/21 03:10:18;;;;;;;16.20;6.90;;;3.90;76.40;;;;;;5041058;28;20122;-88
2020/12/21 03:12:43;;;;;;;15.02;6.18;;;3.90;76.20;;;;;;5021697;28;20032;-85
2020/12/21 03:15:09;;;;;;;18.40;7.00;;;4.00;76.20;;;;;;5021592;28;20032;-85
2020/12/21 03:17:35;;;;;;;16.10;6.45;;;4.00;76.40;;;;;;5042199;28;20021;-85
2020/12/21 03:20:00;;;;;;;17.58;7.00;;;4.00;76.30;;;;;;5021485;28;20029;-85
2020/12/21 03:22:26;;;;;;;22.13;8.00;;;4.00;76.10;;;;;;5055933;28;20029;-87
2020/12/21 03:24:52;;;;;;;17.17;7.18;;;4.00;76.30;;;;;;5024631;28;20017;-86
2020/12/21 03:27:17;;;;;;;15.55;6.57;;;3.90;76.00;;;;;;5055571;28;20044;-86
2020/12/21 03:29:43;;;;;;;18.05;6.93;;;4.00;76.00;;;;;;5028073;28;20087;-86
2020/12/21 03:32:10;;;;;;;18.45;6.82;;;4.00;76.20;;;;;;5038103;28;20029;-86
2020/12/21 03:34:35;;;;;;;18.27;7.55;;;4.00;76.30;;;;;;5045367;28;20024;-86
2020/12/21 03:37:01;;;;;;;19.60;6.88;;;4.00;76.20;;;;;;5037932;28;20086;-86
2020/12/21 03:39:26;;;;;;;18.58;7.90;;;4.00;76.20;;;;;;5024370;28;20017;-86
2020/12/21 03:41:52;;;;;;;19.52;6.57;;;4.00;76.40;;;;;;5040962;28;20052;-86
2020/12/21 03:44:17;;;;;;;14.43;6.90;;;4.00;76.40;;;;;;5017298;28;20064;-85
2020/12/21 03:46:43;;;;;;;17.45;6.68;;;4.00;76.20;;;;;;5037518;28;20070;-86
2020/12/21 03:49:09;;;;;;;15.85;6.85;;;4.00;76.20;;;;;;5024534;28;20033;-85
2020/12/21 03:51:34;;;;;;;16.98;6.93;;;4.00;76.40;;;;;;5037623;28;20170;-85
2020/12/21 03:54:00;;;;;;;17.45;6.53;;;4.00;76.50;;;;;;5021322;28;20021;-86
2020/12/21 03:56:25;;;;;;;18.52;7.53;;;4.00;76.40;;;;;;5020976;28;20047;-87
2020/12/21 03:58:51;;;;;;;17.27;7.57;;;4.10;76.50;;;;;;5020724;28;20473;-86
2020/12/21 04:01:16;;;;;;;13.98;5.82;;;4.10;76.60;;;;;;5018394;28;20021;-86
2020/12/21 04:03:42;;;;;;;20.67;9.13;;;4.10;77.10;;;;;;5024453;28;20028;-86
2020/12/21 04:06:08;;;;;;;18.45;9.15;;;4.10;76.30;;;;;;5037499;28;20035;-88
2020/12/21 04:08:33;;;;;;;18.13;8.68;;;4.10;76.50;;;;;;5020645;28;20081;-86
2020/12/21 04:11:00;;;;;;;14.80;6.97;;;4.10;76.40;;;;;;5037362;28;20475;-87
2020/12/21 04:13:26;;;;;;;17.52;7.20;;;4.10;76.30;;;;;;5020424;28;20051;-88
2020/12/21 04:15:53;;;;;;;18.80;8.32;;;4.10;76.30;;;;;;5036740;28;20020;-87
2020/12/21 04:18:19;;;;;;;18.70;7.30;;;4.10;76.40;;;;;;5020651;28;20432;-87
2020/12/21 04:20:44;;;;;;;17.13;7.05;;;4.00;76.20;;;;;;5040794;28;20029;-87
2020/12/21 04:23:10;;;;;;;18.90;7.97;;;4.00;76.20;;;;;;5020906;28;20056;-86
2020/12/21 04:25:35;;;;;;;16.25;6.75;;;3.90;75.70;;;;;;5020531;28;20039;-85
2020/12/21 04:28:01;;;;;;;16.25;5.82;;;3.80;75.30;;;;;;5040135;28;20115;-86
2020/12/21 04:30:27;;;;;;;17.25;6.50;;;3.70;75.30;;;;;;5020056;28;20061;-86
2020/12/21 04:32:52;;;;;;;20.20;7.25;;;3.50;75.20;;;;;;5037104;28;20032;-88
2020/12/21 04:35:18;;;;;;;15.63;7.40;;;3.50;75.50;;;;;;5014853;28;20603;-87
2020/12/21 04:37:43;;;;;;;21.40;7.68;;;3.50;75.90;;;;;;5036770;28;20028;-86
2020/12/21 04:40:09;;;;;;;19.02;7.38;;;3.50;76.20;;;;;;5017548;28;20495;-86
2020/12/21 04:42:49;;;;;;;17.25;6.57;;;3.50;76.30;;;;;;5036791;28;20028;-85
2020/12/21 04:45:16;;;;;;;21.17;7.82;;;3.50;76.20;;;;;;5020563;28;20056;-86
2020/12/21 04:47:43;;;;;;;16.33;6.95;;;3.60;76.30;;;;;;5038914;28;20020;-86
2020/12/21 04:50:13;;;;;;;20.75;7.88;;;3.60;76.50;;;;;;5026638;28;20045;-85
2020/12/21 04:52:58;;;;;;;19.30;7.40;;;3.60;76.60;;;;;;5036592;28;20017;-86
2020/12/21 04:55:24;;;;;;;20.60;7.95;;;3.60;76.30;;;;;;5036524;28;20029;-85
2020/12/21 04:58:08;;;;;;;21.67;7.57;;;3.60;76.50;;;;;;5017356;28;20474;-86
2020/12/21 05:00:34;;;;;;;18.38;7.85;;;3.70;76.60;;;;;;5014771;28;20052;-86
2020/12/21 05:03:00;;;;;;;19.48;7.63;;;3.70;76.50;;;;;;5019708;28;20029;-86
2020/12/21 05:05:43;;;;;;;22.40;8.57;;;3.70;76.60;;;;;;5019847;28;20022;-86
2020/12/21 05:08:14;;;;;;;19.83;7.65;;;3.80;76.60;;;;;;5037540;28;20052;-86
2020/12/21 05:10:42;;;;;;;22.95;8.00;;;3.80;76.70;;;;;;5036104;28;20114;-86
2020/12/21 05:13:08;;;;;;;21.30;9.25;;;3.80;76.70;;;;;;5020123;28;20025;-86
2020/12/21 05:15:34;;;;;;;20.23;8.38;;;3.80;76.80;;;;;;5038015;28;20052;-86
2020/12/21 05:18:08;;;;;;;22.38;7.68;;;3.90;77.00;;;;;;5052629;28;20049;-86
2020/12/21 05:20:35;;;;;;;18.65;7.50;;;3.90;76.90;;;;;;5035697;28;20025;-85
2020/12/21 05:23:02;;;;;;;20.63;8.30;;;3.90;77.50;;;;;;5036001;28;20401;-86
2020/12/21 05:25:28;;;;;;;18.98;8.18;;;4.00;76.90;;;;;;5036125;28;20519;-85
2020/12/21 05:27:53;;;;;;;20.17;7.70;;;4.00;76.70;;;;;;5035839;28;20025;-85
2020/12/21 05:30:19;;;;;;;24.50;8.82;;;4.00;76.70;;;;;;5019047;28;20505;-86
2020/12/21 05:32:45;;;;;;;22.48;8.05;;;4.00;77.60;;;;;;5035872;28;20112;-84
2020/12/21 05:35:11;;;;;;;21.92;8.43;;;4.10;77.10;;;;;;5036009;28;20067;-86
2020/12/21 05:37:40;;;;;;;22.13;8.35;;;4.10;76.70;;;;;;5019408;28;20028;-87
2020/12/21 05:40:08;;;;;;;24.02;9.35;;;4.10;77.20;;;;;;5018959;28;20568;-87
2020/12/21 05:42:35;;;;;;;24.38;8.77;;;4.10;76.60;;;;;;5043434;28;20031;-86
2020/12/21 05:45:05;;;;;;;20.27;9.07;;;4.00;76.70;;;;;;5036049;28;20017;-86
2020/12/21 05:47:30;;;;;;;21.17;8.30;;;4.10;76.80;;;;;;5035502;28;20135;-86
2020/12/21 05:50:01;;;;;;;21.45;8.90;;;4.10;76.80;;;;;;5035801;28;20107;-86
2020/12/21 05:52:37;;;;;;;23.83;8.35;;;4.10;76.50;;;;;;5023027;28;20033;-86
2020/12/21 05:55:08;;;;;;;20.30;8.32;;;4.10;76.60;;;;;;5038452;28;20016;-86
2020/12/21 05:57:36;;;;;;;21.75;7.53;;;4.10;76.70;;;;;;5036443;28;20124;-86
2020/12/21 06:00:10;;;;;;;27.13;9.50;;;4.10;77.40;;;;;;5042569;28;20075;-85
2020/12/21 06:02:36;;;;;;;22.42;9.13;;;4.10;76.80;;;;;;5055024;28;20059;-85
2020/12/21 06:05:06;;;;;;;19.98;8.13;;;4.10;77.00;;;;;;5036696;28;20460;-86
2020/12/21 06:07:33;;;;;;;24.15;8.50;;;4.10;76.80;;;;;;5061096;28;20657;-85
2020/12/21 06:10:01;;;;;;;26.48;11.10;;;4.10;76.70;;;;;;5040720;28;20358;-85
2020/12/21 06:12:30;;;;;;;26.77;8.90;;;4.10;76.80;;;;;;5062086;28;20024;-85
2020/12/21 06:15:00;;;;;;;25.00;9.88;;;4.10;77.00;;;;;;5040173;28;20032;-87
2020/12/21 06:17:28;;;;;;;24.60;9.20;;;4.10;77.00;;;;;;5045827;28;20033;-84
2020/12/21 06:20:10;;;;;;;22.90;8.38;;;4.20;77.50;;;;;;5042180;28;20032;-84
2020/12/21 06:22:37;;;;;;;21.48;8.40;;;4.20;77.00;;;;;;5026646;28;20025;-84
2020/12/21 06:25:10;;;;;;;27.88;9.82;;;4.30;77.30;;;;;;5033799;28;20060;-83
2020/12/21 06:27:43;;;;;;;25.00;10.32;;;4.40;77.30;;;;;;5034096;28;20121;-83
2020/12/21 06:30:16;;;;;;;23.02;7.72;;;4.40;77.40;;;;;;5023375;28;20382;-83
2020/12/21 06:32:48;;;;;;;26.35;10.52;;;4.40;77.30;;;;;;5015342;28;20034;-83
2020/12/21 06:35:19;;;;;;;22.10;8.40;;;4.40;76.70;;;;;;5018568;28;20100;-81
2020/12/21 06:37:59;;;;;;;26.17;9.63;;;4.50;77.10;;;;;;5021128;28;20132;-82
2020/12/21 06:40:35;;;;;;;23.83;8.77;;;4.40;77.20;;;;;;5018346;28;20026;-82
2020/12/21 06:43:14;;;;;;;27.05;9.15;;;4.40;77.30;;;;;;5004526;28;20034;-81
2020/12/21 06:45:40;;;;;;;24.52;9.25;;;4.50;77.20;;;;;;4998586;28;20088;-84
2020/12/21 06:48:08;;;;;;;25.02;8.98;;;4.50;77.30;;;;;;5004727;28;20526;-84
2020/12/21 06:50:34;;;;;;;21.42;8.50;;;4.50;77.20;;;;;;5019601;28;20176;-81
2020/12/21 06:52:59;;;;;;;27.52;9.45;;;4.60;77.30;;;;;;5018841;28;20033;-84
2020/12/21 06:55:37;;;;;;;22.08;9.02;;;4.60;77.10;;;;;;5001229;28;20030;-83
2020/12/21 06:58:03;;;;;;;27.90;10.05;;;4.60;76.80;;;;;;5002576;28;20029;-82
2020/12/21 07:00:29;;;;;;;29.42;10.88;;;4.50;76.80;;;;;;4999456;28;20026;-81
2020/12/21 07:02:55;;;;;;;24.35;10.38;;;4.50;77.00;;;;;;5005411;28;20374;-81
2020/12/21 07:05:21;;;;;;;30.27;9.90;;;4.50;77.00;;;;;;5023777;28;20045;-81
2020/12/21 07:07:59;;;;;;;24.40;10.13;;;4.60;77.30;;;;;;5000273;28;20033;-81
2020/12/21 07:10:25;;;;;;;23.02;9.60;;;4.60;77.20;;;;;;5020246;28;20084;-81
2020/12/21 07:12:52;;;;;;;28.75;10.07;;;4.60;77.10;;;;;;5014983;28;20478;-81
2020/12/21 07:15:21;;;;;;;27.08;9.88;;;4.60;77.30;;;;;;5019859;28;20374;-81
2020/12/21 07:17:47;;;;;;;22.10;9.05;;;4.60;77.10;;;;;;5012460;28;20026;-82
2020/12/21 07:20:12;;;;;;;23.48;9.45;;;4.70;77.40;;;;;;5000714;28;20528;-82
2020/12/21 07:22:38;;;;;;;23.10;9.85;;;4.70;77.30;;;;;;4991663;28;20030;-82
2020/12/21 07:25:04;;;;;;;21.17;8.65;;;4.70;77.30;;;;;;5022810;28;20017;-80
2020/12/21 07:27:33;;;;;;;24.67;9.88;;;4.70;77.10;;;;;;5019336;28;20041;-80
2020/12/21 07:30:08;;;;;;;27.00;9.07;;;4.70;77.20;;;;;;5035802;28;20049;-81
2020/12/21 07:32:34;;;;;;;28.90;11.18;;;4.70;77.10;;;;;;5063391;28;20358;-80
2020/12/21 07:34:59;;;;;;;22.17;9.40;;;4.70;77.20;;;;;;5019153;28;20036;-81
2020/12/21 07:37:25;;;;;;;25.23;9.50;;;4.80;77.20;;;;;;5031205;28;20033;-81
2020/12/21 07:39:51;;;;;;;24.00;10.02;;;4.80;77.50;;;;;;5022863;28;20116;-80
2020/12/21 07:42:18;;;;;;;21.83;8.40;;;4.80;77.40;;;;;;5017554;28;20029;-81
2020/12/21 07:44:49;;;;;;;20.25;8.90;;;4.90;77.30;;;;;;5028727;28;20091;-80
2020/12/21 07:47:28;;;;;;;19.70;8.65;;;4.90;77.20;;;;;;5042824;28;20036;-80
2020/12/21 07:49:54;;;;;;;20.63;8.95;;;4.90;77.40;;;;;;5044253;28;20090;-80
2020/12/21 07:52:20;;;;;;;24.80;10.38;;;4.90;77.40;;;;;;5026440;28;20496;-80
2020/12/21 07:54:46;;;;;;;23.30;9.05;;;4.90;77.30;;;;;;5061065;28;20456;-80
2020/12/21 07:57:14;;;;;;;25.65;9.77;;;4.90;76.90;;;;;;5040406;28;20048;-80
2020/12/21 07:59:40;;;;;;;21.83;8.80;;;4.80;76.80;;;;;;5023355;28;20020;-80
2020/12/21 08:02:07;;;;;;;23.35;8.55;;;4.80;76.80;;;;;;5037168;28;20032;-80
2020/12/21 08:04:33;;;;;;;23.65;9.63;;;4.70;76.90;;;;;;5041239;28;20033;-81
2020/12/21 08:07:09;;;;;;;27.50;9.32;;;4.70;77.30;;;;;;5040544;28;20031;-81
2020/12/21 08:09:38;;;;;;;22.33;8.65;;;4.80;77.40;;;;;;5038325;28;20057;-81
2020/12/21 08:12:13;;;;;;;28.63;10.23;;;4.90;77.60;;;;;;5037248;28;20063;-79
2020/12/21 08:14:40;;;;;;;24.50;10.20;;;5.00;77.60;;;;;;5033635;28;20535;-80
2020/12/21 08:17:12;;;;;;;23.05;9.57;;;5.00;77.60;;;;;;5036954;28;20473;-80
2020/12/21 08:20:01;;;;;;;20.90;9.50;;;5.10;77.80;;;;;;5020431;28;20022;-79
2020/12/21 08:22:30;;;;;;;21.67;9.18;;;5.10;77.60;;;;;;5039287;28;20118;-82
2020/12/21 08:25:00;;;;;;;23.77;9.55;;;5.20;78.00;;;;;;5036009;28;20021;-81
2020/12/21 08:27:26;;;;;;;26.45;8.90;;;5.30;78.30;;;;;;5033889;28;20036;-80
2020/12/21 08:29:52;;;;;;;26.83;9.90;;;5.40;78.30;;;;;;5027078;28;20053;-80
2020/12/21 08:32:29;;;;;;;24.92;9.57;;;5.60;78.40;;;;;;5043271;28;20102;-80
2020/12/21 08:34:59;;;;;;;23.77;9.23;;;5.70;78.10;;;;;;5043400;28;20017;-80
2020/12/21 08:37:28;;;;;;;21.65;8.95;;;5.70;77.60;;;;;;5037065;28;20033;-81
2020/12/21 08:39:54;;;;;;;22.48;8.98;;;5.70;77.90;;;;;;5041773;28;20029;-80
2020/12/21 08:42:20;;;;;;;20.17;9.15;;;5.70;77.60;;;;;;5062443;28;20160;-80
2020/12/21 08:44:50;;;;;;;26.48;10.07;;;5.70;77.70;;;;;;5043222;28;20036;-80
2020/12/21 08:47:15;;;;;;;20.17;8.73;;;5.80;78.10;;;;;;5034727;28;20033;-81
2020/12/21 08:49:41;;;;;;;20.73;9.65;;;5.90;77.90;;;;;;5039991;28;20104;-81
2020/12/21 08:52:06;;;;;;;26.10;9.98;;;5.90;77.70;;;;;;5043755;28;20091;-81
2020/12/21 08:54:32;;;;;;;23.80;10.07;;;6.00;77.90;;;;;;5020474;28;20060;-85
2020/12/21 08:56:58;;;;;;;26.45;10.38;;;6.00;77.70;;;;;;5036659;28;20025;-84
2020/12/21 08:59:25;;;;;;;22.83;9.98;;;6.00;77.80;;;;;;5029636;28;20021;-83
2020/12/21 09:01:50;;;;;;;21.70;10.35;;;6.00;77.80;;;;;;5035710;28;20029;-84
2020/12/21 09:04:17;;;;;;;22.02;8.90;;;6.00;77.70;;;;;;5043842;28;20024;-84
2020/12/21 09:06:43;;;;;;;25.55;10.73;;;6.10;77.80;;;;;;5037392;28;20508;-84
2020/12/21 09:09:10;;;;;;;22.50;9.23;;;6.10;77.70;;;;;;5042701;28;20029;-84
2020/12/21 09:11:36;;;;;;;27.27;10.48;;;6.10;77.90;;;;;;5040801;28;20046;-82
2020/12/21 09:14:02;;;;;;;24.30;10.85;;;6.20;78.10;;;;;;5031472;28;20025;-82
2020/12/21 09:16:30;;;;;;;22.73;9.60;;;6.20;77.80;;;;;;5018888;28;20029;-83
2020/12/21 09:18:57;;;;;;;23.38;10.25;;;6.20;77.90;;;;;;5055866;28;20028;-83
2020/12/21 09:21:30;;;;;;;22.45;10.93;;;6.20;77.50;;;;;;5036415;28;20027;-83
2020/12/21 09:23:58;;;;;;;24.00;10.50;;;6.20;77.90;;;;;;5036530;28;20025;-83
2020/12/21 09:26:24;;;;;;;23.42;10.75;;;6.20;78.00;;;;;;5035655;28;20032;-83
2020/12/21 09:28:51;;;;;;;27.40;11.35;;;6.40;78.10;;;;;;5024602;28;20119;-83
2020/12/21 09:31:17;;;;;;;22.90;10.45;;;6.30;78.20;;;;;;5008125;28;20050;-83
2020/12/21 09:33:43;;;;;;;24.23;9.55;;;6.40;78.20;;;;;;4997086;28;20022;-83
2020/12/21 09:36:10;;;;;;;22.00;10.32;;;6.50;78.40;;;;;;4999690;28;20533;-82
2020/12/21 09:38:37;;;;;;;25.35;10.13;;;6.50;77.90;;;;;;5015360;28;20088;-83
2020/12/21 09:41:04;;;;;;;24.30;10.98;;;6.60;78.30;;;;;;5016970;28;20028;-83
2020/12/21 09:43:30;;;;;;;23.95;10.50;;;6.60;78.30;;;;;;5013467;28;20018;-84
2020/12/21 09:45:56;;;;;;;24.77;10.07;;;6.70;78.30;;;;;;4999247;28;20117;-85
2020/12/21 09:48:22;;;;;;;22.88;10.18;;;6.80;78.60;;;;;;5012806;28;20129;-84
2020/12/21 09:50:48;;;;;;;23.15;10.65;;;6.90;78.50;;;;;;4993879;28;20129;-85
2020/12/21 09:53:14;;;;;;;23.95;9.93;;;6.90;78.00;;;;;;4999936;28;20540;-83
2020/12/21 09:55:40;;;;;;;26.95;10.18;;;6.80;77.70;;;;;;5012817;28;20026;-82
2020/12/21 09:58:05;;;;;;;26.25;10.80;;;6.80;78.10;;;;;;5004294;28;20382;-84
2020/12/21 10:00:31;;;;;;;27.10;11.63;;;6.90;78.20;;;;;;5011176;28;20038;-84
2020/12/21 10:02:57;;;;;;;23.98;9.50;;;6.90;78.00;;;;;;5012235;28;20133;-84
2020/12/21 10:05:23;;;;;;;24.98;11.75;;;6.90;78.20;;;;;;4995522;28;20546;-85
2020/12/21 10:07:49;;;;;;;24.20;9.75;;;6.90;78.40;;;;;;4996178;28;20382;-85
2020/12/21 10:10:15;;;;;;;23.08;10.27;;;7.00;77.90;;;;;;4999234;28;20134;-85
2020/12/21 10:12:40;;;;;;;28.08;11.90;;;7.00;78.00;;;;;;5019664;28;20025;-86
2020/12/21 10:18:08;;;;;;;26.30;11.02;;;7.10;78.40;;;;;;5010887;28;20121;-85
2020/12/21 10:20:34;;;;;;;26.80;10.95;;;7.10;78.30;;;;;;5017033;28;20140;-85
2020/12/21 10:23:00;;;;;;;25.63;11.68;;;7.20;78.40;;;;;;5020157;28;20044;-84
2020/12/21 10:25:26;;;;;;;27.38;11.38;;;7.20;78.10;;;;;;5014612;28;20042;-84
2020/12/21 10:27:51;;;;;;;24.60;11.18;;;7.20;78.30;;;;;;5000061;28;20022;-84
2020/12/21 10:30:17;;;;;;;24.67;10.38;;;7.30;78.10;;;;;;5022882;28;20066;-84
2020/12/21 10:32:43;;;;;;;22.58;10.73;;;7.30;78.00;;;;;;5017767;28;20030;-84
2020/12/21 10:35:10;;;;;;;27.95;11.75;;;7.20;78.50;;;;;;5022072;28;20030;-85
2020/12/21 10:37:35;;;;;;;26.15;11.48;;;7.30;78.00;;;;;;5016427;28;20047;-82
2020/12/21 10:40:01;;;;;;;31.90;12.20;;;7.30;78.10;;;;;;5016959;28;20037;-83
2020/12/21 10:42:28;;;;;;;32.92;11.73;;;7.30;78.40;;;;;;5016799;28;20034;-84
2020/12/21 10:44:54;;;;;;;28.10;11.18;;;7.30;78.40;;;;;;5016659;28;20476;-82
2020/12/21 10:47:21;;;;;;;26.67;11.70;;;7.40;78.30;;;;;;5017459;28;20037;-82
2020/12/21 10:49:50;;;;;;;28.35;11.75;;;7.50;78.40;;;;;;5036583;28;20024;-85
2020/12/21 10:52:16;;;;;;;28.75;11.50;;;7.50;78.20;;;;;;5015207;28;20041;-83
2020/12/21 10:54:45;;;;;;;26.83;11.27;;;7.50;78.50;;;;;;5010323;28;20120;-84
2020/12/21 10:57:13;;;;;;;27.50;11.02;;;7.50;78.10;;;;;;4994300;28;20037;-85
2020/12/21 10:59:39;;;;;;;25.30;11.13;;;7.50;78.10;;;;;;5022586;28;20092;-82
2020/12/21 11:02:04;;;;;;;29.00;12.30;;;7.50;77.80;;;;;;5017058;28;20414;-83
2020/12/21 11:04:31;;;;;;;25.83;11.35;;;7.40;78.50;;;;;;5024701;28;20032;-83
2020/12/21 11:06:56;;;;;;;25.52;10.88;;;7.40;78.20;;;;;;5025463;28;20030;-83
2020/12/21 11:09:22;;;;;;;29.20;12.45;;;7.50;77.90;;;;;;4998339;28;20032;-83
2020/12/21 11:11:49;;;;;;;26.85;12.80;;;7.50;78.10;;;;;;5013800;28;20359;-82
2020/12/21 11:14:15;;;;;;;27.92;10.85;;;7.50;78.20;;;;;;5014826;28;20041;-82
2020/12/21 11:16:41;;;;;;;21.38;10.10;;;7.50;77.80;;;;;;5015297;28;20190;-82
2020/12/21 11:19:07;;;;;;;26.10;10.52;;;7.50;78.20;;;;;;5004053;28;20038;-82
2020/12/21 11:21:37;;;;;;;27.98;12.20;;;7.50;78.10;;;;;;5006814;28;20065;-81
2020/12/21 11:24:03;;;;;;;27.50;12.20;;;7.50;78.10;;;;;;5013585;28;20022;-82
2020/12/21 11:26:28;;;;;;;29.48;12.57;;;7.50;78.10;;;;;;5014091;28;20018;-84
2020/12/21 11:28:54;;;;;;;25.63;10.70;;;7.50;78.00;;;;;;4997467;28;20493;-85
2020/12/21 11:31:20;;;;;;;24.35;10.32;;;7.50;77.90;;;;;;5016314;28;20038;-86
2020/12/21 11:33:45;;;;;;;24.65;10.95;;;7.50;77.80;;;;;;5033261;28;20539;-86
2020/12/21 11:36:12;;;;;;;29.80;13.50;;;7.50;77.90;;;;;;5037013;28;20061;-84
2020/12/21 11:38:37;;;;;;;28.02;12.25;;;7.50;78.30;;;;;;5028835;28;20041;-83
2020/12/21 11:41:04;;;;;;;25.00;10.68;;;7.50;78.10;;;;;;5039356;28;20074;-83
2020/12/21 11:43:30;;;;;;;29.77;12.88;;;7.50;77.90;;;;;;5051757;28;20510;-84
2020/12/21 11:45:56;;;;;;;27.92;11.35;;;7.50;78.10;;;;;;5041876;28;20032;-84
2020/12/21 11:48:21;;;;;;;25.42;11.30;;;7.60;78.40;;;;;;5045663;28;20024;-82
2020/12/21 11:50:47;;;;;;;27.63;11.65;;;7.60;78.30;;;;;;5046858;28;20032;-81
2020/12/21 11:53:13;;;;;;;26.42;11.82;;;7.60;78.30;;;;;;5072547;28;20030;-83
2020/12/21 11:55:46;;;;;;;29.17;11.65;;;7.70;78.20;;;;;;5038960;28;20040;-84
2020/12/21 11:58:11;;;;;;;26.77;10.55;;;7.70;78.20;;;;;;5049374;28;20105;-84
2020/12/21 12:00:37;;;;;;;26.40;12.15;;;7.70;78.30;;;;;;5047594;28;20020;-84
2020/12/21 12:03:03;;;;;;;28.98;12.18;;;7.80;78.10;;;;;;5043244;28;20063;-83
2020/12/21 12:05:29;;;;;;;29.92;12.10;;;7.80;78.50;;;;;;5046966;28;20032;-82
2020/12/21 12:07:54;;;;;;;29.48;12.65;;;7.80;78.40;;;;;;5041211;28;20021;-85
2020/12/21 12:10:20;;;;;;;28.05;12.05;;;7.90;78.50;;;;;;5039263;28;20116;-85
2020/12/21 12:12:46;;;;;;;32.00;12.80;;;7.90;78.50;;;;;;5024183;28;20033;-84
2020/12/21 12:15:12;;;;;;;28.95;12.10;;;7.90;78.30;;;;;;5015849;28;20373;-83
2020/12/21 12:17:38;;;;;;;32.40;13.32;;;8.00;78.10;;;;;;5048424;28;20039;-85
2020/12/21 12:20:04;;;;;;;27.52;11.43;;;8.00;78.40;;;;;;5026623;28;20389;-83
2020/12/21 12:22:30;;;;;;;24.77;10.65;;;8.00;78.40;;;;;;5035889;28;20021;-83
2020/12/21 12:24:56;;;;;;;34.10;13.63;;;8.10;78.30;;;;;;5026208;28;20537;-83
2020/12/21 12:27:21;;;;;;;26.17;11.38;;;8.10;78.70;;;;;;5040369;28;20384;-82
2020/12/21 12:29:47;;;;;;;29.33;11.43;;;8.20;78.20;;;;;;5037460;28;20053;-83
2020/12/21 12:32:13;;;;;;;30.63;11.63;;;8.20;78.60;;;;;;5021399;28;20030;-82
2020/12/21 12:34:39;;;;;;;30.42;12.45;;;8.20;78.50;;;;;;5019741;28;20352;-82
2020/12/21 12:37:05;;;;;;;28.60;12.68;;;8.20;78.90;;;;;;4994259;28;20033;-83
2020/12/21 12:39:30;;;;;;;26.35;11.63;;;8.20;78.00;;;;;;5011097;28;20038;-83
2020/12/21 12:41:56;;;;;;;27.58;11.85;;;8.40;78.70;;;;;;5020040;28;20018;-84
2020/12/21 12:44:21;;;;;;;30.35;12.55;;;8.50;79.60;;;;;;5020321;28;20398;-86
2020/12/21 12:46:47;;;;;;;31.88;13.23;;;8.60;78.80;;;;;;4999678;28;20028;-85